createdAt,value
2024-04-03T00:00:00.459Z,0.50
2024-04-03T00:01:00.558Z,0.50
2024-04-03T00:02:00.684Z,0.51
2024-04-03T00:03:00.810Z,0.51
2024-04-03T00:04:00.895Z,0.51
2024-04-03T00:05:00.997Z,0.51
2024-04-03T00:06:01.104Z,0.51
2024-04-03T00:07:01.231Z,0.51
2024-04-03T00:08:01.334Z,0.50
2024-04-03T00:09:01.426Z,0.51
2024-04-03T00:10:01.532Z,0.51
2024-04-03T00:11:01.634Z,0.51
2024-04-03T00:12:01.784Z,0.50
2024-04-03T00:13:01.868Z,0.51
2024-04-03T00:14:01.951Z,0.50
2024-04-03T00:15:02.076Z,0.50
2024-04-03T00:16:02.163Z,0.51
2024-04-03T00:17:02.255Z,0.50
2024-04-03T00:18:02.353Z,0.50
2024-04-03T00:19:02.458Z,0.51
2024-04-03T00:20:02.578Z,0.51
2024-04-03T00:21:02.677Z,0.51
2024-04-03T00:22:02.783Z,0.50
2024-04-03T00:23:02.896Z,0.51
2024-04-03T00:24:02.978Z,0.51
2024-04-03T00:25:03.095Z,0.51
2024-04-03T00:26:03.181Z,0.50
2024-04-03T00:27:03.295Z,0.52
2024-04-03T00:28:03.401Z,0.51
2024-04-03T00:29:03.483Z,0.50
2024-04-03T00:30:03.608Z,0.50
2024-04-03T00:31:03.699Z,0.51
2024-04-03T00:32:03.791Z,0.50
2024-04-03T00:33:03.887Z,0.51
2024-04-03T00:34:03.991Z,0.51
2024-04-03T00:35:04.087Z,0.51
2024-04-03T00:36:04.179Z,0.51
2024-04-03T00:37:04.275Z,0.51
2024-04-03T00:38:04.365Z,0.51
2024-04-03T00:39:04.467Z,0.51
2024-04-03T00:40:04.567Z,0.51
2024-04-03T00:41:04.674Z,0.50
2024-04-03T00:42:04.813Z,0.51
2024-04-03T00:43:04.875Z,0.51
2024-04-03T00:44:04.985Z,0.50
2024-04-03T00:45:05.075Z,0.51
2024-04-03T00:46:05.164Z,0.51
2024-04-03T00:47:05.266Z,0.51
2024-04-03T00:48:05.375Z,0.50
2024-04-03T00:49:05.465Z,0.50
2024-04-03T00:50:05.575Z,0.50
2024-04-03T00:51:05.675Z,0.50
2024-04-03T00:52:05.791Z,0.50
2024-04-03T00:53:05.875Z,0.50
2024-04-03T00:54:05.974Z,0.50
2024-04-03T00:55:06.050Z,0.51
2024-04-03T00:56:06.152Z,0.50
2024-04-03T00:57:06.234Z,0.50
2024-04-03T00:58:06.361Z,0.50
2024-04-03T00:59:06.424Z,0.50
2024-04-03T01:00:06.507Z,0.50
2024-04-03T01:01:06.605Z,0.51
2024-04-03T01:02:06.680Z,0.51
2024-04-03T01:03:06.795Z,0.50
2024-04-03T01:04:06.892Z,0.50
2024-04-03T01:05:07.000Z,0.51
2024-04-03T01:06:07.082Z,0.50
2024-04-03T01:07:07.207Z,0.50
2024-04-03T01:08:07.276Z,0.50
2024-04-03T01:09:07.370Z,0.50
2024-04-03T01:10:07.472Z,0.51
2024-04-03T01:11:09.223Z,0.51
2024-04-03T01:12:07.753Z,0.50
2024-04-03T01:13:07.739Z,0.51
2024-04-03T01:14:07.748Z,0.50
2024-04-03T01:15:07.776Z,0.50
2024-04-03T01:16:07.805Z,0.51
2024-04-03T01:17:07.856Z,0.50
2024-04-03T01:18:07.874Z,0.50
2024-04-03T01:19:07.912Z,0.50
2024-04-03T01:20:07.923Z,0.50
2024-04-03T01:21:07.969Z,0.50
2024-04-03T01:22:08.066Z,0.51
2024-04-03T01:23:08.188Z,0.51
2024-04-03T01:24:08.279Z,0.50
2024-04-03T01:25:08.382Z,0.51
2024-04-03T01:26:08.474Z,0.50
2024-04-03T01:27:08.586Z,0.50
2024-04-03T01:28:08.690Z,0.51
2024-04-03T01:29:08.802Z,0.50
2024-04-03T01:30:08.931Z,0.50
2024-04-03T01:31:09.041Z,0.50
2024-04-03T01:32:09.132Z,0.50
2024-04-03T01:33:09.262Z,0.51
2024-04-03T01:34:09.384Z,0.50
2024-04-03T01:35:09.482Z,0.51
2024-04-03T01:36:09.591Z,0.50
2024-04-03T01:37:09.696Z,0.51
2024-04-03T01:38:09.879Z,0.50
2024-04-03T01:39:09.890Z,0.50
2024-04-03T01:40:09.990Z,0.51
2024-04-03T01:41:10.103Z,0.51
2024-04-03T01:42:10.192Z,0.50
2024-04-03T01:43:10.305Z,0.50
2024-04-03T01:44:10.405Z,0.50
2024-04-03T01:45:10.494Z,0.50
2024-04-03T01:46:10.587Z,0.50
2024-04-03T01:47:10.726Z,0.50
2024-04-03T01:48:10.806Z,0.50
2024-04-03T01:49:10.912Z,0.50
2024-04-03T01:50:11.019Z,0.50
2024-04-03T01:51:11.133Z,0.51
2024-04-03T01:52:11.266Z,0.50
2024-04-03T01:53:11.344Z,0.50
2024-04-03T01:54:11.454Z,0.50
2024-04-03T01:55:11.576Z,0.50
2024-04-03T01:56:11.677Z,0.50
2024-04-03T01:57:11.784Z,0.50
2024-04-03T01:58:11.899Z,0.50
2024-04-03T01:59:12.016Z,0.51
2024-04-03T02:00:12.115Z,0.50
2024-04-03T02:01:12.220Z,0.51
2024-04-03T02:02:12.328Z,0.50
2024-04-03T02:03:12.431Z,0.50
2024-04-03T02:04:12.543Z,0.50
2024-04-03T02:05:12.634Z,0.50
2024-04-03T02:06:12.735Z,0.50
2024-04-03T02:07:12.847Z,0.50
2024-04-03T02:08:12.954Z,0.51
2024-04-03T02:09:13.064Z,0.50
2024-04-03T02:10:13.138Z,0.51
2024-04-03T02:11:13.252Z,0.50
2024-04-03T02:12:13.352Z,0.50
2024-04-03T02:13:13.454Z,0.50
2024-04-03T02:14:13.545Z,0.50
2024-04-03T02:15:13.649Z,0.50
2024-04-03T02:16:13.759Z,0.50
2024-04-03T02:17:13.868Z,0.50
2024-04-03T02:18:13.971Z,0.50
2024-04-03T02:19:14.074Z,0.50
2024-04-03T02:20:14.191Z,0.50
2024-04-03T02:21:14.276Z,0.50
2024-04-03T02:22:14.382Z,0.51
2024-04-03T02:23:16.728Z,0.51
2024-04-03T02:24:20.495Z,0.51
2024-04-03T02:25:15.512Z,0.51
2024-04-03T02:26:14.507Z,0.51
2024-04-03T02:27:14.522Z,0.51
2024-04-03T02:28:14.517Z,0.51
2024-04-03T02:29:14.522Z,0.50
2024-04-03T02:30:14.533Z,0.51
2024-04-03T02:31:14.526Z,0.50
2024-04-03T02:32:14.519Z,0.50
2024-04-03T02:33:14.534Z,0.50
2024-04-03T02:34:14.563Z,0.50
2024-04-03T02:35:14.575Z,0.50
2024-04-03T02:36:14.686Z,0.50
2024-04-03T02:37:14.793Z,0.51
2024-04-03T02:38:14.902Z,0.51
2024-04-03T02:39:15.010Z,0.51
2024-04-03T02:40:15.123Z,0.50
2024-04-03T02:41:15.235Z,0.50
2024-04-03T02:42:15.362Z,0.50
2024-04-03T02:43:15.457Z,0.50
2024-04-03T02:44:15.581Z,0.51
2024-04-03T02:45:15.694Z,0.50
2024-04-03T02:46:15.799Z,0.51
2024-04-03T02:47:15.914Z,0.51
2024-04-03T02:48:16.023Z,0.50
2024-04-03T02:49:16.134Z,0.50
2024-04-03T02:50:16.273Z,0.50
2024-04-03T02:51:16.349Z,0.50
2024-04-03T02:52:16.456Z,0.51
2024-04-03T02:53:16.575Z,0.50
2024-04-03T02:54:16.672Z,0.51
2024-04-03T02:55:16.787Z,0.50
2024-04-03T02:56:16.910Z,0.50
2024-04-03T02:57:17.024Z,0.50
2024-04-03T02:58:17.115Z,0.50
2024-04-03T02:59:17.223Z,0.50
2024-04-03T03:00:17.336Z,0.50
2024-04-03T03:01:17.440Z,0.50
2024-04-03T03:02:17.577Z,0.50
2024-04-03T03:03:17.666Z,0.51
2024-04-03T03:04:17.776Z,0.51
2024-04-03T03:05:17.883Z,0.51
2024-04-03T03:06:18.008Z,0.50
2024-04-03T03:07:18.133Z,0.50
2024-04-03T03:08:18.221Z,0.50
2024-04-03T03:09:18.345Z,0.51
2024-04-03T03:10:18.465Z,0.50
2024-04-03T03:11:18.574Z,0.50
2024-04-03T03:12:18.670Z,0.51
2024-04-03T03:13:18.791Z,0.51
2024-04-03T03:14:18.906Z,0.50
2024-04-03T03:15:19.041Z,0.51
2024-04-03T03:16:19.146Z,0.50
2024-04-03T03:17:19.290Z,0.51
2024-04-03T03:18:27.986Z,0.51
2024-04-03T03:19:19.539Z,0.51
2024-04-03T03:20:19.583Z,0.51
2024-04-03T03:21:19.593Z,0.51
2024-04-03T03:22:19.641Z,0.51
2024-04-03T03:23:19.641Z,0.51
2024-04-03T03:24:19.694Z,0.51
2024-04-03T03:25:19.728Z,0.51
2024-04-03T03:26:19.762Z,0.50
2024-04-03T03:27:19.802Z,0.50
2024-04-03T03:28:19.848Z,0.50
2024-04-03T03:29:19.964Z,0.51
2024-04-03T03:30:20.072Z,0.51
2024-04-03T03:31:20.206Z,0.51
2024-04-03T03:32:20.315Z,0.50
2024-04-03T03:33:20.425Z,0.50
2024-04-03T03:34:20.534Z,0.50
2024-04-03T03:35:20.656Z,0.50
2024-04-03T03:36:20.752Z,0.51
2024-04-03T03:37:20.869Z,0.51
2024-04-03T03:38:21.004Z,0.50
2024-04-03T03:39:21.115Z,0.51
2024-04-03T03:40:21.195Z,0.50
2024-04-03T03:41:21.301Z,0.50
2024-04-03T03:42:21.408Z,0.51
2024-04-03T03:43:21.517Z,0.50
2024-04-03T03:44:21.631Z,0.50
2024-04-03T03:45:21.737Z,0.50
2024-04-03T03:46:21.844Z,0.51
2024-04-03T03:47:22.021Z,0.51
2024-04-03T03:48:22.079Z,0.50
2024-04-03T03:49:22.186Z,0.51
2024-04-03T03:50:22.277Z,0.50
2024-04-03T03:51:22.396Z,0.50
2024-04-03T03:52:22.508Z,0.51
2024-04-03T03:53:22.590Z,0.51
2024-04-03T03:54:22.720Z,0.50
2024-04-03T03:55:22.825Z,0.50
2024-04-03T03:56:29.123Z,0.51
2024-04-03T03:57:23.947Z,0.51
2024-04-03T03:58:22.938Z,0.51
2024-04-03T03:59:22.932Z,0.51
2024-04-03T04:00:22.934Z,0.51
2024-04-03T04:01:22.939Z,0.50
2024-04-03T04:02:22.971Z,0.50
2024-04-03T04:03:22.957Z,0.50
2024-04-03T04:04:22.958Z,0.50
2024-04-03T04:05:22.969Z,0.51
2024-04-03T04:06:23.005Z,0.51
2024-04-03T04:07:23.114Z,0.51
2024-04-03T04:08:23.223Z,0.51
2024-04-03T04:09:23.326Z,0.50
2024-04-03T04:10:23.441Z,0.51
2024-04-03T04:11:23.552Z,0.51
2024-04-03T04:12:23.648Z,0.50
2024-04-03T04:13:23.761Z,0.50
2024-04-03T04:14:23.850Z,0.51
2024-04-03T04:15:23.962Z,0.50
2024-04-03T04:16:24.038Z,0.50
2024-04-03T04:17:24.174Z,0.51
2024-04-03T04:18:24.251Z,0.50
2024-04-03T04:19:24.351Z,0.50
2024-04-03T04:20:24.458Z,0.51
2024-04-03T04:21:24.542Z,0.51
2024-04-03T04:22:24.653Z,0.51
2024-04-03T04:23:24.758Z,0.51
2024-04-03T04:24:24.839Z,0.50
2024-04-03T04:25:24.983Z,0.51
2024-04-03T04:26:25.048Z,0.50
2024-04-03T04:27:25.166Z,0.51
2024-04-03T04:28:25.285Z,0.50
2024-04-03T04:29:25.410Z,0.50
2024-04-03T04:30:25.483Z,0.51
2024-04-03T04:31:25.565Z,0.50
2024-04-03T04:32:25.679Z,0.50
2024-04-03T04:33:25.808Z,0.51
2024-04-03T04:34:25.882Z,0.50
2024-04-03T04:35:25.996Z,0.50
2024-04-03T04:36:26.128Z,0.50
2024-04-03T04:37:26.220Z,0.50
2024-04-03T04:38:26.337Z,0.50
2024-04-03T04:39:26.440Z,0.51
2024-04-03T04:40:26.545Z,0.50
2024-04-03T04:41:26.622Z,0.50
2024-04-03T04:42:26.720Z,0.50
2024-04-03T04:43:26.847Z,0.51
2024-04-03T04:44:26.909Z,0.50
2024-04-03T04:45:27.058Z,0.51
2024-04-03T04:46:27.096Z,0.50
2024-04-03T04:47:27.238Z,0.50
2024-04-03T04:48:27.310Z,0.52
2024-04-03T04:49:27.645Z,0.51
2024-04-03T04:50:27.488Z,0.51
2024-04-03T04:51:34.838Z,0.50
2024-04-03T04:52:34.816Z,0.50
2024-04-03T04:53:34.865Z,0.50
2024-04-03T04:54:34.863Z,0.50
2024-04-03T04:55:34.846Z,0.50
2024-04-03T04:56:34.915Z,0.50
2024-04-03T04:57:34.844Z,0.50
2024-04-03T04:58:34.934Z,0.50
2024-04-03T04:59:35.028Z,0.50
2024-04-03T05:00:35.120Z,0.50
2024-04-03T05:01:35.232Z,0.50
2024-04-03T05:02:35.395Z,0.51
2024-04-03T05:03:35.435Z,0.50
2024-04-03T05:04:35.542Z,0.50
2024-04-03T05:05:35.627Z,0.50
2024-04-03T05:06:35.741Z,0.50
2024-04-03T05:07:35.835Z,0.51
2024-04-03T05:08:35.976Z,0.51
2024-04-03T05:09:36.055Z,0.50
2024-04-03T05:10:36.163Z,0.50
2024-04-03T05:11:36.267Z,0.50
2024-04-03T05:12:36.379Z,0.50
2024-04-03T05:13:36.490Z,0.51
2024-04-03T05:14:36.625Z,0.51
2024-04-03T05:15:36.692Z,0.51
2024-04-03T05:16:36.820Z,0.52
2024-04-03T05:17:36.902Z,0.52
2024-04-03T05:18:37.015Z,0.52
2024-04-03T05:19:37.128Z,0.52
2024-04-03T05:20:37.235Z,0.53
2024-04-03T05:21:37.341Z,0.52
2024-04-03T05:22:37.475Z,0.53
2024-04-03T05:23:37.583Z,0.53
2024-04-03T05:24:37.670Z,0.52
2024-04-03T05:25:37.779Z,0.53
2024-04-03T05:26:37.858Z,0.53
2024-04-03T05:27:37.956Z,0.53
2024-04-03T05:28:38.078Z,0.52
2024-04-03T05:29:38.168Z,0.53
2024-04-03T05:30:38.297Z,0.52
2024-04-03T05:31:38.378Z,0.52
2024-04-03T05:32:38.525Z,0.52
2024-04-03T05:33:38.568Z,0.52
2024-04-03T05:34:38.687Z,0.53
2024-04-03T05:35:38.790Z,0.52
2024-04-03T05:36:38.902Z,0.52
2024-04-03T05:37:39.008Z,0.52
2024-04-03T05:38:39.082Z,0.52
2024-04-03T05:39:39.162Z,0.52
2024-04-03T05:40:39.348Z,0.52
2024-04-03T05:41:39.275Z,0.53
2024-04-03T05:42:39.313Z,0.53
2024-04-03T05:43:39.332Z,0.54
2024-04-03T05:44:39.391Z,0.55
2024-04-03T05:45:39.415Z,0.55
2024-04-03T05:46:39.486Z,0.56
2024-04-03T05:47:39.519Z,0.57
2024-04-03T05:48:39.623Z,0.51
2024-04-03T05:49:39.602Z,0.51
2024-04-03T05:50:39.643Z,0.50
2024-04-03T05:51:39.689Z,0.50
2024-04-03T05:52:39.720Z,0.51
2024-04-03T05:53:39.735Z,0.50
2024-04-03T05:54:39.775Z,0.50
2024-04-03T05:55:39.790Z,0.50
2024-04-03T05:56:39.860Z,0.51
2024-04-03T05:57:39.945Z,0.51
2024-04-03T05:58:40.017Z,0.50
2024-04-03T05:59:40.050Z,0.51
2024-04-03T06:00:40.118Z,0.51
2024-04-03T06:01:40.190Z,0.52
2024-04-03T06:02:40.251Z,0.53
2024-04-03T06:03:40.354Z,0.53
2024-04-03T06:04:40.401Z,0.55
2024-04-03T06:05:40.496Z,0.59
2024-04-03T06:06:40.655Z,0.58
2024-04-03T06:07:40.745Z,0.60
2024-04-03T06:08:40.845Z,0.61
2024-04-03T06:09:41.983Z,0.62
2024-04-03T06:10:41.068Z,0.65
2024-04-03T06:11:41.164Z,0.67
2024-04-03T06:12:41.257Z,0.71
2024-04-03T06:13:41.345Z,0.73
2024-04-03T06:14:41.479Z,0.77
2024-04-03T06:15:41.520Z,0.81
2024-04-03T06:16:41.598Z,0.85
2024-04-03T06:17:41.698Z,0.88
2024-04-03T06:18:41.746Z,0.92
2024-04-03T06:19:41.832Z,0.96
2024-04-03T06:20:41.899Z,0.99
2024-04-03T06:21:41.999Z,1.05
2024-04-03T06:22:42.092Z,1.10
2024-04-03T06:23:42.163Z,1.12
2024-04-03T06:24:42.261Z,1.16
2024-04-03T06:25:42.360Z,1.20
2024-04-03T06:26:42.427Z,1.26
2024-04-03T06:27:42.491Z,1.30
2024-04-03T06:28:42.597Z,1.34
2024-04-03T06:29:42.646Z,1.44
2024-04-03T06:30:42.717Z,1.46
2024-04-03T06:31:42.788Z,1.54
2024-04-03T06:32:42.920Z,1.60
2024-04-03T06:33:42.918Z,1.67
2024-04-03T06:34:42.994Z,1.72
2024-04-03T06:35:43.055Z,1.83
2024-04-03T06:36:43.193Z,1.91
2024-04-03T06:37:43.214Z,1.98
2024-04-03T06:38:43.291Z,2.04
2024-04-03T06:39:43.405Z,2.16
2024-04-03T06:40:43.479Z,2.31
2024-04-03T06:41:43.592Z,2.35
2024-04-03T06:42:43.717Z,2.53
2024-04-03T06:43:43.753Z,2.54
2024-04-03T06:44:43.835Z,2.67
2024-04-03T06:45:43.918Z,2.74
2024-04-03T06:46:44.012Z,2.81
2024-04-03T06:47:44.104Z,2.88
2024-04-03T06:48:44.176Z,3.01
2024-04-03T06:49:44.279Z,3.14
2024-04-03T06:50:44.355Z,3.23
2024-04-03T06:51:44.472Z,3.40
2024-04-03T06:52:44.561Z,3.42
2024-04-03T06:53:44.627Z,3.53
2024-04-03T06:54:44.769Z,3.86
2024-04-03T06:55:44.814Z,3.97
2024-04-03T06:56:44.895Z,3.95
2024-04-03T06:57:44.980Z,4.05
2024-04-03T06:58:45.983Z,3.58
2024-04-03T06:59:45.181Z,2.67
2024-04-03T07:00:45.216Z,2.28
2024-04-03T07:01:45.287Z,1.85
2024-04-03T07:02:45.392Z,1.62
2024-04-03T07:03:45.462Z,1.34
2024-04-03T07:04:45.550Z,1.20
2024-04-03T07:05:45.643Z,1.03
2024-04-03T07:06:45.722Z,0.94
2024-04-03T07:07:45.833Z,0.84
2024-04-03T07:08:45.924Z,0.80
2024-04-03T07:09:46.018Z,0.80
2024-04-03T07:10:46.149Z,0.81
2024-04-03T07:11:46.243Z,0.92
2024-04-03T07:12:46.321Z,1.00
2024-04-03T07:13:46.396Z,1.05
2024-04-03T07:14:46.465Z,1.09
2024-04-03T07:15:46.548Z,1.12
2024-04-03T07:16:46.614Z,1.13
2024-04-03T07:17:46.728Z,1.12
2024-04-03T07:18:47.472Z,1.08
2024-04-03T07:19:46.904Z,1.02
2024-04-03T07:20:47.010Z,1.00
2024-04-03T07:21:47.084Z,1.00
2024-04-03T07:22:47.165Z,0.98
2024-04-03T07:23:47.271Z,0.96
2024-04-03T07:24:47.400Z,0.95
2024-04-03T07:25:47.440Z,0.95
2024-04-03T07:26:47.536Z,0.96
2024-04-03T07:27:50.281Z,0.95
2024-04-03T07:28:47.978Z,0.98
2024-04-03T07:29:47.579Z,0.98
2024-04-03T07:30:47.625Z,0.98
2024-04-03T07:31:47.579Z,0.98
2024-04-03T07:32:47.573Z,0.99
2024-04-03T07:33:47.576Z,1.00
2024-04-03T07:34:47.581Z,1.02
2024-04-03T07:35:47.589Z,1.01
2024-04-03T07:36:47.589Z,1.04
2024-04-03T07:37:47.575Z,1.08
2024-04-03T07:38:47.578Z,1.21
2024-04-03T07:39:47.597Z,1.28
2024-04-03T07:40:47.599Z,1.26
2024-04-03T07:41:47.598Z,1.27
2024-04-03T07:42:47.609Z,1.26
2024-04-03T07:43:47.587Z,1.28
2024-04-03T07:44:49.777Z,1.27
2024-04-03T07:45:47.589Z,1.27
2024-04-03T07:46:47.633Z,1.28
2024-04-03T07:47:47.604Z,1.29
2024-04-03T07:48:47.612Z,1.31
2024-04-03T07:49:47.621Z,1.32
2024-04-03T07:50:47.625Z,1.33
2024-04-03T07:51:47.605Z,1.36
2024-04-03T07:52:47.617Z,1.35
2024-04-03T07:53:47.615Z,1.37
2024-04-03T07:54:47.625Z,1.37
2024-04-03T07:55:47.628Z,1.34
2024-04-03T07:56:47.634Z,1.39
2024-04-03T07:57:47.612Z,1.36
2024-04-03T07:58:47.695Z,1.38
2024-04-03T07:59:47.620Z,1.39
2024-04-03T08:00:47.638Z,1.41
2024-04-03T08:01:47.619Z,1.38
2024-04-03T08:02:47.617Z,1.39
2024-04-03T08:03:47.702Z,1.41
2024-04-03T08:04:47.624Z,1.42
2024-04-03T08:05:47.639Z,1.41
2024-04-03T08:06:47.648Z,1.40
2024-04-03T08:07:47.624Z,1.41
2024-04-03T08:08:47.683Z,1.42
2024-04-03T08:09:47.683Z,1.40
2024-04-03T08:10:47.763Z,1.43
2024-04-03T08:11:47.707Z,1.39
2024-04-03T08:12:47.713Z,1.39
2024-04-03T08:13:47.691Z,1.38
2024-04-03T08:14:47.696Z,1.41
2024-04-03T08:15:48.030Z,1.38
2024-04-03T08:16:47.704Z,1.39
2024-04-03T08:17:47.706Z,1.38
2024-04-03T08:18:47.725Z,1.39
2024-04-03T08:19:47.717Z,1.39
2024-04-03T08:20:47.719Z,1.37
2024-04-03T08:21:47.715Z,1.39
2024-04-03T08:22:47.723Z,1.37
2024-04-03T08:23:47.723Z,1.40
2024-04-03T08:24:47.713Z,1.36
2024-04-03T08:25:47.722Z,1.41
2024-04-03T08:26:47.704Z,1.40
2024-04-03T08:27:47.780Z,1.37
2024-04-03T08:28:47.846Z,1.36
2024-04-03T08:29:47.929Z,1.39
2024-04-03T08:30:47.992Z,1.38
2024-04-03T08:31:48.078Z,1.37
2024-04-03T08:32:48.146Z,1.37
2024-04-03T08:34:48.301Z,1.37
2024-04-03T08:35:48.378Z,1.34
2024-04-03T08:36:48.473Z,1.35
2024-04-03T08:37:57.091Z,1.35
2024-04-03T08:38:49.527Z,1.35
2024-04-03T08:39:48.538Z,1.34
2024-04-03T08:40:48.516Z,1.35
2024-04-03T08:41:48.526Z,1.34
2024-04-03T08:42:48.529Z,1.32
2024-04-03T08:43:48.565Z,1.35
2024-04-03T08:44:48.535Z,1.32
2024-04-03T08:45:48.570Z,1.35
2024-04-03T08:46:48.586Z,1.32
2024-04-03T08:47:48.569Z,1.34
2024-04-03T08:48:49.015Z,1.30
2024-04-03T08:49:48.581Z,1.32
2024-04-03T08:50:48.579Z,1.33
2024-04-03T08:51:48.590Z,1.38
2024-04-03T08:52:48.599Z,1.42
2024-04-03T08:53:48.602Z,1.44
2024-04-03T08:54:48.610Z,1.51
2024-04-03T08:55:48.591Z,1.55
2024-04-03T08:56:48.588Z,1.71
2024-04-03T08:57:48.587Z,1.71
2024-04-03T08:58:48.575Z,1.77
2024-04-03T08:59:48.590Z,1.80
2024-04-03T09:00:48.635Z,1.87
2024-04-03T09:01:48.600Z,1.86
2024-04-03T09:02:48.595Z,1.96
2024-04-03T09:03:48.658Z,1.92
2024-04-03T09:04:48.683Z,1.91
2024-04-03T09:05:48.784Z,1.88
2024-04-03T09:06:48.860Z,1.89
2024-04-03T09:07:55.866Z,1.86
2024-04-03T09:08:49.958Z,1.85
2024-04-03T09:09:48.967Z,1.82
2024-04-03T09:10:52.443Z,1.73
2024-04-03T09:11:48.970Z,1.72
2024-04-03T09:12:48.961Z,1.53
2024-04-03T09:13:48.995Z,1.41
2024-04-03T09:14:48.988Z,1.26
2024-04-03T09:15:48.993Z,1.14
2024-04-03T09:16:56.090Z,1.00
2024-04-03T09:17:50.005Z,0.95
2024-04-03T09:18:48.984Z,0.83
2024-04-03T09:19:48.983Z,0.78
2024-04-03T09:20:50.669Z,0.70
2024-04-03T09:21:48.997Z,0.63
2024-04-03T09:22:48.981Z,0.59
2024-04-03T09:23:48.981Z,0.54
2024-04-03T09:24:48.980Z,0.52
2024-04-03T09:25:56.332Z,0.50
2024-04-03T09:26:56.309Z,0.50
2024-04-03T09:27:57.281Z,0.50
2024-04-03T09:28:56.281Z,0.50
2024-04-03T09:29:56.310Z,0.50
2024-04-03T09:30:56.301Z,0.50
2024-04-03T09:31:56.278Z,0.50
2024-04-03T09:32:56.283Z,0.51
2024-04-03T09:33:56.285Z,0.51
2024-04-03T09:34:56.300Z,0.51
2024-04-03T09:35:56.303Z,0.50
2024-04-03T09:36:56.373Z,0.50
2024-04-03T09:37:56.459Z,0.50
2024-04-03T09:38:56.534Z,0.50
2024-04-03T09:39:56.598Z,0.50
2024-04-03T09:40:56.707Z,0.52
2024-04-03T09:41:56.768Z,0.55
2024-04-03T09:42:56.832Z,0.58
2024-04-03T09:43:56.899Z,0.60
2024-04-03T09:44:56.971Z,0.61
2024-04-03T09:45:57.062Z,0.64
2024-04-03T09:46:57.168Z,0.66
2024-04-03T09:47:57.225Z,0.69
2024-04-03T09:48:57.369Z,0.68
2024-04-03T09:49:57.443Z,0.64
2024-04-03T09:50:57.534Z,0.60
2024-04-03T09:51:57.608Z,0.59
2024-04-03T09:52:57.673Z,0.57
2024-04-03T09:53:57.763Z,0.56
2024-04-03T09:54:57.820Z,0.54
2024-04-03T09:55:57.908Z,0.51
2024-04-03T09:56:57.979Z,0.51
2024-04-03T09:57:58.195Z,0.50
2024-04-03T09:58:58.157Z,0.50
2024-04-03T09:59:58.207Z,0.50
2024-04-03T10:00:58.275Z,0.50
2024-04-03T10:01:58.353Z,0.50
2024-04-03T10:02:58.456Z,0.51
2024-04-03T10:03:58.528Z,0.50
2024-04-03T10:04:58.603Z,0.51
2024-04-03T10:05:58.702Z,0.50
2024-04-03T10:06:58.768Z,0.51
2024-04-03T10:07:58.810Z,0.51
2024-04-03T10:08:58.924Z,0.51
2024-04-03T10:09:59.002Z,0.52
2024-04-03T10:10:59.064Z,0.50
2024-04-03T10:11:59.132Z,0.50
2024-04-03T10:12:59.223Z,0.51
2024-04-03T10:13:59.762Z,0.51
2024-04-03T10:14:59.333Z,0.51
2024-04-03T10:15:59.336Z,0.50
2024-04-03T10:16:59.384Z,0.51
2024-04-03T10:17:59.385Z,0.50
2024-04-03T10:18:59.424Z,0.51
2024-04-03T10:19:59.436Z,0.50
2024-04-03T10:20:59.473Z,0.51
2024-04-03T10:21:59.476Z,0.51
2024-04-03T10:22:59.553Z,0.51
2024-04-03T10:23:59.569Z,0.51
2024-04-03T10:25:00.574Z,0.51
2024-04-03T10:25:59.535Z,0.51
2024-04-03T10:26:59.537Z,0.50
2024-04-03T10:27:59.550Z,0.50
2024-04-03T10:28:59.549Z,0.49
2024-04-03T10:29:59.553Z,0.51
2024-04-03T10:30:59.570Z,0.51
2024-04-03T10:31:59.566Z,0.52
2024-04-03T10:32:59.582Z,0.54
2024-04-03T10:33:59.568Z,0.54
2024-04-03T10:34:59.571Z,0.55
2024-04-03T10:35:59.641Z,0.56
2024-04-03T10:36:59.752Z,0.57
2024-04-03T10:37:59.835Z,0.57
2024-04-03T10:38:59.955Z,0.58
2024-04-03T10:40:00.052Z,0.57
2024-04-03T10:41:00.145Z,0.57
2024-04-03T10:42:00.243Z,0.56
2024-04-03T10:43:00.345Z,0.57
2024-04-03T10:44:00.419Z,0.60
2024-04-03T10:45:00.521Z,0.62
2024-04-03T10:46:00.603Z,0.64
2024-04-03T10:47:00.695Z,0.69
2024-04-03T10:48:00.749Z,0.71
2024-04-03T10:49:00.850Z,0.71
2024-04-03T10:50:00.922Z,0.74
2024-04-03T10:51:01.004Z,0.75
2024-04-03T10:52:01.098Z,0.77
2024-04-03T10:53:01.152Z,0.81
2024-04-03T10:54:01.252Z,0.84
2024-04-03T10:55:01.327Z,0.88
2024-04-03T10:56:01.381Z,0.88
2024-04-03T10:57:01.453Z,0.93
2024-04-03T10:58:01.529Z,0.96
2024-04-03T10:59:01.625Z,1.00
2024-04-03T11:00:01.701Z,1.04
2024-04-03T11:01:01.797Z,1.08
2024-04-03T11:02:01.899Z,1.12
2024-04-03T11:03:02.000Z,1.16
2024-04-03T11:04:02.078Z,1.17
2024-04-03T11:05:02.187Z,1.26
2024-04-03T11:06:02.268Z,1.31
2024-04-03T11:07:02.346Z,1.36
2024-04-03T11:08:02.461Z,1.44
2024-04-03T11:09:07.570Z,1.47
2024-04-03T11:10:02.536Z,1.48
2024-04-03T11:11:02.548Z,1.50
2024-04-03T11:12:02.562Z,1.56
2024-04-03T11:13:02.554Z,1.67
2024-04-03T11:14:02.556Z,1.86
2024-04-03T11:15:02.545Z,1.98
2024-04-03T11:16:02.563Z,2.03
2024-04-03T11:17:02.623Z,2.14
2024-04-03T11:18:02.791Z,2.19
2024-04-03T11:19:02.873Z,2.24
2024-04-03T11:20:02.954Z,2.33
2024-04-03T11:21:02.984Z,2.39
2024-04-03T11:22:03.075Z,2.57
2024-04-03T11:23:03.156Z,2.64
2024-04-03T11:24:03.271Z,2.79
2024-04-03T11:25:03.369Z,2.94
2024-04-03T11:26:03.487Z,3.08
2024-04-03T11:27:03.530Z,3.08
2024-04-03T11:28:03.629Z,3.30
2024-04-03T11:29:03.714Z,3.44
2024-04-03T11:30:03.820Z,3.63
2024-04-03T11:31:03.882Z,3.80
2024-04-03T11:32:03.979Z,3.97
2024-04-03T11:33:04.123Z,4.19
2024-04-03T11:34:04.173Z,4.37
2024-04-03T11:35:04.306Z,4.50
2024-04-03T11:36:04.347Z,4.64
2024-04-03T11:37:04.440Z,5.06
2024-04-03T11:38:04.548Z,5.59
2024-04-03T11:39:04.669Z,6.26
2024-04-03T11:40:04.800Z,6.44
2024-04-03T11:41:04.862Z,6.75
2024-04-03T11:42:05.018Z,6.65
2024-04-03T11:43:05.044Z,7.01
2024-04-03T11:44:05.173Z,7.20
2024-04-03T11:45:05.264Z,7.07
2024-04-03T11:46:13.882Z,7.12
2024-04-03T11:47:06.366Z,7.14
2024-04-03T11:48:05.378Z,7.19
2024-04-03T11:49:05.386Z,7.31
2024-04-03T11:50:05.395Z,7.53
2024-04-03T11:51:05.384Z,7.86
2024-04-03T11:52:05.374Z,7.80
2024-04-03T11:53:05.396Z,8.00
2024-04-03T11:54:05.392Z,7.75
2024-04-03T11:55:05.479Z,7.82
2024-04-03T11:56:05.578Z,7.78
2024-04-03T11:57:05.616Z,7.89
2024-04-03T11:58:05.711Z,7.81
2024-04-03T11:59:05.787Z,7.79
2024-04-03T12:00:05.894Z,7.99
2024-04-03T12:01:05.961Z,7.92
2024-04-03T12:02:06.040Z,8.07
2024-04-03T12:03:06.149Z,7.89
2024-04-03T12:04:06.222Z,7.74
2024-04-03T12:05:06.289Z,7.91
2024-04-03T12:06:06.351Z,7.72
2024-04-03T12:07:06.380Z,7.79
2024-04-03T12:08:06.439Z,7.71
2024-04-03T12:09:06.489Z,7.75
2024-04-03T12:10:06.578Z,7.50
2024-04-03T12:11:06.633Z,7.60
2024-04-03T12:12:06.676Z,7.66
2024-04-03T12:13:06.758Z,7.55
2024-04-03T12:14:06.825Z,7.64
2024-04-03T12:15:06.909Z,7.57
2024-04-03T12:16:07.027Z,7.25
2024-04-03T12:17:07.064Z,7.35
2024-04-03T12:18:07.119Z,7.28
2024-04-03T12:19:07.164Z,7.16
2024-04-03T12:20:07.212Z,7.11
2024-04-03T12:21:07.293Z,7.13
2024-04-03T12:22:07.374Z,7.20
2024-04-03T12:23:07.430Z,7.19
2024-04-03T12:24:07.484Z,7.18
2024-04-03T12:25:07.557Z,6.89
2024-04-03T12:26:07.625Z,6.78
2024-04-03T12:27:07.690Z,6.72
2024-04-03T12:28:07.753Z,6.79
2024-04-03T12:29:07.827Z,6.66
2024-04-03T12:30:08.008Z,6.68
2024-04-03T12:31:07.943Z,6.46
2024-04-03T12:32:08.006Z,6.53
2024-04-03T12:33:08.063Z,6.46
2024-04-03T12:34:08.119Z,6.54
2024-04-03T12:35:08.163Z,6.33
2024-04-03T12:36:08.216Z,6.24
2024-04-03T12:37:13.386Z,6.11
2024-04-03T12:38:24.368Z,6.12
2024-04-03T12:39:09.312Z,6.13
2024-04-03T12:40:08.333Z,6.16
2024-04-03T12:41:08.278Z,6.21
2024-04-03T12:42:08.288Z,6.21
2024-04-03T12:43:08.297Z,6.22
2024-04-03T12:44:08.779Z,6.05
2024-04-03T12:45:08.295Z,6.19
2024-04-03T12:46:08.287Z,6.07
2024-04-03T12:47:08.297Z,6.03
2024-04-03T12:48:08.297Z,5.85
2024-04-03T12:49:08.323Z,5.93
2024-04-03T12:50:09.128Z,5.77
2024-04-03T12:51:08.300Z,5.94
2024-04-03T12:52:08.294Z,5.65
2024-04-03T12:53:08.299Z,5.62
2024-04-03T12:54:08.304Z,5.75
2024-04-03T12:55:08.305Z,5.80
2024-04-03T12:56:08.313Z,6.02
2024-04-03T12:57:08.431Z,5.90
2024-04-03T12:58:08.297Z,5.92
2024-04-03T12:59:08.303Z,5.99
2024-04-03T13:00:08.333Z,5.68
2024-04-03T13:01:08.307Z,5.70
2024-04-03T13:02:08.326Z,5.70
2024-04-03T13:03:08.345Z,5.61
2024-04-03T13:04:08.326Z,5.72
2024-04-03T13:05:08.319Z,5.60
2024-04-03T13:06:08.349Z,5.51
2024-04-03T13:07:08.312Z,5.51
2024-04-03T13:08:08.316Z,5.53
2024-04-03T13:09:08.324Z,5.59
2024-04-03T13:10:08.325Z,5.61
2024-04-03T13:11:08.340Z,5.48
2024-04-03T13:12:08.320Z,5.45
2024-04-03T13:13:08.320Z,5.54
2024-04-03T13:14:08.336Z,5.33
2024-04-03T13:15:08.398Z,5.40
2024-04-03T13:16:08.451Z,5.40
2024-04-03T13:17:08.509Z,5.28
2024-04-03T13:18:08.557Z,5.27
2024-04-03T13:19:08.631Z,5.23
2024-04-03T13:20:08.724Z,5.22